RLSO2: Arkansas River, Ralston, OK

Data processed at Wed May 22 2019 23:50


All information presented herein is the property of the government of the United States of America and may be revised or deleted at any time without prior notice.
Dissemination of this information without the expressed written consent of the Public Affairs Office, Tulsa District U.S. Army Corps of Engineers is strictly prohibited.
These data are gathered electronically and, as presented, have not undergone any form of quality control. These data are not guaranteed to be valid or correct.
Go to home page.
Go to station list.
Go to home page.

Upstream stations:

Downstream station:
Previous Day
Next Day
Current Day
    
SHEF ID:       RLSO2     Arkansas River at Ralston, OK
STATION TYPE:  
Regulating: Stage =    16.00, Flow =    79156

               PRECIP     STAGE  RIV-FLOW  BAT-LOAD
                   in        ft       cfs      volt
              Ccp-Rev   Ccp-Rev   Ccp-Rev   Ccp-Rev
(US/Central)
05/22 00:00      0.00     18.70    116080     12.65
05/22 01:00      0.00     18.68    115776     12.57
05/22 02:00      0.00     18.68    115776     12.57
05/22 03:00      0.00     18.64    115170     12.57
05/22 04:00      0.00     18.61    114717     12.57
05/22 05:00      0.00     18.54    113662     12.57
05/22 06:00      0.00     18.50    113062     12.57
05/22 07:00      0.00     18.55    113813     12.57
05/22 08:00      0.00     18.65    115321     12.65
05/22 09:00      0.00     18.84    118219     12.97
05/22 10:00      0.01     19.05    121518     13.13
05/22 11:00      0.00     19.26    125184     13.29
05/22 12:00      0.00     19.44    128378     13.68
05/22 13:00      0.00     19.66    132348     13.68
05/22 14:00      0.00     19.86    136019     13.68
05/22 15:00      0.00     20.06    139769     13.44
05/22 16:00      0.00     20.27    143847     13.53
05/22 17:00      0.00     20.46    147599     13.60
05/22 18:00      0.00     20.66    151611     13.29
05/22 19:00      0.00     20.84    155279     13.29
05/22 20:00      0.00     20.99    158376     12.89
05/22 21:00      0.14     21.15    161821     12.81
05/22 22:00      0.08     21.28    164672     12.65
05/22 23:00      0.01     21.47    168896     12.65